UERP 231000Z 21002MPS CAVOK M20/M23 Q1025 NOSIG RMK QFE725
QNH:(hPa/inHg/mmHg)1025 / 30.27 / 769
QFE:(hPa/inHg/mmHg)963 / 28.44 / 722
Temperature-20
Dew Point-23
Visibility> 10000
WeatherCAVOK
Cloud Cover
Transition Height700 m./4000 ft.
Transition LevelFL50
SQUAWK